sensor_id;sensor_type;location;lat;lon;timestamp;P1;durP1;ratioP1;P2;durP2;ratioP2
65469;SDS011;52067;50.710;14.492;2023-02-28T00:00:26;12.50;;;6.18;;
65469;SDS011;52067;50.710;14.492;2023-02-28T00:02:52;12.20;;;5.55;;
65469;SDS011;52067;50.710;14.492;2023-02-28T00:05:20;13.75;;;6.43;;
65469;SDS011;52067;50.710;14.492;2023-02-28T00:07:47;11.80;;;5.78;;
65469;SDS011;52067;50.710;14.492;2023-02-28T00:10:13;12.90;;;5.40;;
65469;SDS011;52067;50.710;14.492;2023-02-28T00:12:45;15.15;;;6.22;;
65469;SDS011;52067;50.710;14.492;2023-02-28T00:15:11;12.65;;;5.50;;
65469;SDS011;52067;50.710;14.492;2023-02-28T00:17:37;12.05;;;5.90;;
65469;SDS011;52067;50.710;14.492;2023-02-28T00:20:02;14.77;;;6.65;;
65469;SDS011;52067;50.710;14.492;2023-02-28T00:22:29;12.27;;;5.55;;
65469;SDS011;52067;50.710;14.492;2023-02-28T00:24:55;12.05;;;5.78;;
65469;SDS011;52067;50.710;14.492;2023-02-28T00:27:21;12.50;;;5.53;;
65469;SDS011;52067;50.710;14.492;2023-02-28T00:29:46;10.23;;;5.20;;
65469;SDS011;52067;50.710;14.492;2023-02-28T00:32:12;18.95;;;6.07;;
65469;SDS011;52067;50.710;14.492;2023-02-28T00:34:38;11.10;;;5.63;;
65469;SDS011;52067;50.710;14.492;2023-02-28T00:37:04;16.13;;;6.40;;
65469;SDS011;52067;50.710;14.492;2023-02-28T00:39:31;16.17;;;6.90;;
65469;SDS011;52067;50.710;14.492;2023-02-28T00:41:57;15.07;;;7.05;;
65469;SDS011;52067;50.710;14.492;2023-02-28T00:44:23;14.88;;;6.82;;
65469;SDS011;52067;50.710;14.492;2023-02-28T00:46:48;14.65;;;6.43;;
65469;SDS011;52067;50.710;14.492;2023-02-28T00:49:14;14.43;;;6.82;;
65469;SDS011;52067;50.710;14.492;2023-02-28T00:51:39;15.70;;;6.65;;
65469;SDS011;52067;50.710;14.492;2023-02-28T00:54:04;16.33;;;6.43;;
65469;SDS011;52067;50.710;14.492;2023-02-28T00:56:30;16.42;;;7.43;;
65469;SDS011;52067;50.710;14.492;2023-02-28T00:58:55;19.25;;;7.53;;
65469;SDS011;52067;50.710;14.492;2023-02-28T01:01:20;16.33;;;7.50;;
65469;SDS011;52067;50.710;14.492;2023-02-28T01:03:46;21.20;;;9.00;;
65469;SDS011;52067;50.710;14.492;2023-02-28T01:06:11;26.48;;;9.60;;
65469;SDS011;52067;50.710;14.492;2023-02-28T01:08:37;25.52;;;9.75;;
65469;SDS011;52067;50.710;14.492;2023-02-28T01:11:12;26.00;;;9.68;;
65469;SDS011;52067;50.710;14.492;2023-02-28T01:13:39;23.58;;;10.30;;
65469;SDS011;52067;50.710;14.492;2023-02-28T01:16:05;29.63;;;10.05;;
65469;SDS011;52067;50.710;14.492;2023-02-28T01:18:31;18.63;;;9.05;;
65469;SDS011;52067;50.710;14.492;2023-02-28T01:20:56;20.75;;;9.18;;
65469;SDS011;52067;50.710;14.492;2023-02-28T01:23:22;20.23;;;9.63;;
65469;SDS011;52067;50.710;14.492;2023-02-28T01:25:49;25.73;;;10.27;;
65469;SDS011;52067;50.710;14.492;2023-02-28T01:28:17;21.48;;;9.90;;
65469;SDS011;52067;50.710;14.492;2023-02-28T01:30:46;19.45;;;8.85;;
65469;SDS011;52067;50.710;14.492;2023-02-28T01:33:13;22.92;;;8.40;;
65469;SDS011;52067;50.710;14.492;2023-02-28T01:35:38;18.50;;;8.57;;
65469;SDS011;52067;50.710;14.492;2023-02-28T01:38:03;27.25;;;9.57;;
65469;SDS011;52067;50.710;14.492;2023-02-28T01:40:29;20.33;;;8.90;;
65469;SDS011;52067;50.710;14.492;2023-02-28T01:42:54;16.83;;;8.45;;
65469;SDS011;52067;50.710;14.492;2023-02-28T01:45:27;20.77;;;9.05;;
65469;SDS011;52067;50.710;14.492;2023-02-28T01:48:00;22.70;;;9.32;;
65469;SDS011;52067;50.710;14.492;2023-02-28T01:50:29;20.00;;;9.07;;
65469;SDS011;52067;50.710;14.492;2023-02-28T01:53:00;23.05;;;8.27;;
65469;SDS011;52067;50.710;14.492;2023-02-28T01:55:29;19.48;;;8.20;;
65469;SDS011;52067;50.710;14.492;2023-02-28T01:57:57;18.33;;;7.32;;
65469;SDS011;52067;50.710;14.492;2023-02-28T02:00:26;14.40;;;7.32;;
65469;SDS011;52067;50.710;14.492;2023-02-28T02:02:56;13.90;;;6.95;;
65469;SDS011;52067;50.710;14.492;2023-02-28T02:05:28;13.82;;;6.70;;
65469;SDS011;52067;50.710;14.492;2023-02-28T02:07:56;15.63;;;6.35;;
65469;SDS011;52067;50.710;14.492;2023-02-28T02:10:33;13.57;;;6.00;;
65469;SDS011;52067;50.710;14.492;2023-02-28T02:13:13;11.48;;;5.38;;
65469;SDS011;52067;50.710;14.492;2023-02-28T02:16:07;12.05;;;5.45;;
65469;SDS011;52067;50.710;14.492;2023-02-28T02:29:39;13.88;;;6.32;;
65469;SDS011;52067;50.710;14.492;2023-02-28T02:37:58;11.52;;;6.40;;
65469;SDS011;52067;50.710;14.492;2023-02-28T02:40:34;15.45;;;6.53;;
65469;SDS011;52067;50.710;14.492;2023-02-28T02:43:06;14.73;;;6.03;;
65469;SDS011;52067;50.710;14.492;2023-02-28T02:48:09;18.08;;;7.93;;
65469;SDS011;52067;50.710;14.492;2023-02-28T02:50:39;13.50;;;6.22;;
65469;SDS011;52067;50.710;14.492;2023-02-28T02:53:08;14.77;;;6.03;;
65469;SDS011;52067;50.710;14.492;2023-02-28T02:55:37;12.07;;;5.68;;
65469;SDS011;52067;50.710;14.492;2023-02-28T02:58:07;14.80;;;6.53;;
65469;SDS011;52067;50.710;14.492;2023-02-28T03:00:39;12.90;;;6.50;;
65469;SDS011;52067;50.710;14.492;2023-02-28T03:03:07;46.80;;;30.50;;
65469;SDS011;52067;50.710;14.492;2023-02-28T03:05:35;18.10;;;7.93;;
65469;SDS011;52067;50.710;14.492;2023-02-28T03:08:07;17.88;;;7.55;;
65469;SDS011;52067;50.710;14.492;2023-02-28T03:10:37;17.48;;;7.70;;
65469;SDS011;52067;50.710;14.492;2023-02-28T03:18:42;21.70;;;8.60;;
65469;SDS011;52067;50.710;14.492;2023-02-28T03:21:36;23.42;;;9.55;;
65469;SDS011;52067;50.710;14.492;2023-02-28T03:24:11;23.17;;;9.25;;
65469;SDS011;52067;50.710;14.492;2023-02-28T03:26:42;34.83;;;10.50;;
65469;SDS011;52067;50.710;14.492;2023-02-28T03:29:21;21.65;;;9.90;;
65469;SDS011;52067;50.710;14.492;2023-02-28T03:32:27;24.75;;;10.27;;
65469;SDS011;52067;50.710;14.492;2023-02-28T03:35:01;22.63;;;9.43;;
65469;SDS011;52067;50.710;14.492;2023-02-28T03:37:35;21.88;;;9.00;;
65469;SDS011;52067;50.710;14.492;2023-02-28T03:40:08;23.23;;;9.50;;
65469;SDS011;52067;50.710;14.492;2023-02-28T03:42:37;16.75;;;6.30;;
65469;SDS011;52067;50.710;14.492;2023-02-28T03:45:16;17.98;;;8.05;;
65469;SDS011;52067;50.710;14.492;2023-02-28T03:48:45;17.77;;;7.75;;
65469;SDS011;52067;50.710;14.492;2023-02-28T03:50:39;19.40;;;8.95;;
65469;SDS011;52067;50.710;14.492;2023-02-28T03:53:09;16.02;;;7.55;;
65469;SDS011;52067;50.710;14.492;2023-02-28T03:55:40;20.67;;;8.77;;
65469;SDS011;52067;50.710;14.492;2023-02-28T03:58:15;22.67;;;9.30;;
65469;SDS011;52067;50.710;14.492;2023-02-28T04:00:55;18.85;;;7.68;;
65469;SDS011;52067;50.710;14.492;2023-02-28T04:03:32;17.65;;;8.00;;
65469;SDS011;52067;50.710;14.492;2023-02-28T04:05:57;16.77;;;7.35;;
65469;SDS011;52067;50.710;14.492;2023-02-28T04:08:23;16.58;;;7.78;;
65469;SDS011;52067;50.710;14.492;2023-02-28T04:13:48;21.67;;;7.15;;
65469;SDS011;52067;50.710;14.492;2023-02-28T04:16:13;26.85;;;12.93;;
65469;SDS011;52067;50.710;14.492;2023-02-28T04:18:39;15.32;;;7.93;;
65469;SDS011;52067;50.710;14.492;2023-02-28T04:21:05;29.45;;;16.92;;
65469;SDS011;52067;50.710;14.492;2023-02-28T04:23:31;16.65;;;7.43;;
65469;SDS011;52067;50.710;14.492;2023-02-28T04:25:57;19.40;;;8.40;;
65469;SDS011;52067;50.710;14.492;2023-02-28T04:28:22;21.73;;;8.77;;
65469;SDS011;52067;50.710;14.492;2023-02-28T04:30:53;19.40;;;8.65;;
65469;SDS011;52067;50.710;14.492;2023-02-28T04:33:19;17.40;;;8.68;;
65469;SDS011;52067;50.710;14.492;2023-02-28T04:35:45;15.98;;;7.47;;
65469;SDS011;52067;50.710;14.492;2023-02-28T04:38:10;13.98;;;6.95;;
65469;SDS011;52067;50.710;14.492;2023-02-28T04:40:35;21.45;;;8.15;;
65469;SDS011;52067;50.710;14.492;2023-02-28T04:43:01;17.52;;;7.70;;
65469;SDS011;52067;50.710;14.492;2023-02-28T04:45:28;15.38;;;6.80;;
65469;SDS011;52067;50.710;14.492;2023-02-28T04:47:57;15.80;;;6.20;;
65469;SDS011;52067;50.710;14.492;2023-02-28T04:50:22;12.40;;;5.68;;
65469;SDS011;52067;50.710;14.492;2023-02-28T04:52:48;12.02;;;6.07;;
65469;SDS011;52067;50.710;14.492;2023-02-28T04:55:13;16.08;;;6.75;;
65469;SDS011;52067;50.710;14.492;2023-02-28T04:57:39;16.35;;;6.05;;
65469;SDS011;52067;50.710;14.492;2023-02-28T05:00:07;11.77;;;5.88;;
65469;SDS011;52067;50.710;14.492;2023-02-28T05:02:36;13.60;;;5.70;;
65469;SDS011;52067;50.710;14.492;2023-02-28T05:05:02;11.52;;;5.90;;
65469;SDS011;52067;50.710;14.492;2023-02-28T05:07:27;13.68;;;6.82;;
65469;SDS011;52067;50.710;14.492;2023-02-28T05:09:53;15.43;;;7.07;;
65469;SDS011;52067;50.710;14.492;2023-02-28T05:12:18;18.85;;;6.88;;
65469;SDS011;52067;50.710;14.492;2023-02-28T05:14:44;15.05;;;6.68;;
65469;SDS011;52067;50.710;14.492;2023-02-28T05:17:09;16.15;;;6.57;;
65469;SDS011;52067;50.710;14.492;2023-02-28T05:19:35;11.43;;;5.78;;
65469;SDS011;52067;50.710;14.492;2023-02-28T05:22:00;19.42;;;6.30;;
65469;SDS011;52067;50.710;14.492;2023-02-28T05:24:25;22.58;;;7.95;;
65469;SDS011;52067;50.710;14.492;2023-02-28T05:26:52;16.15;;;7.25;;
65469;SDS011;52067;50.710;14.492;2023-02-28T05:29:18;17.63;;;8.15;;
65469;SDS011;52067;50.710;14.492;2023-02-28T05:31:44;20.65;;;8.18;;
65469;SDS011;52067;50.710;14.492;2023-02-28T05:34:10;18.80;;;8.32;;
65469;SDS011;52067;50.710;14.492;2023-02-28T05:36:37;18.27;;;8.38;;
65469;SDS011;52067;50.710;14.492;2023-02-28T05:39:04;21.88;;;8.32;;
65469;SDS011;52067;50.710;14.492;2023-02-28T05:41:30;20.42;;;7.25;;
65469;SDS011;52067;50.710;14.492;2023-02-28T05:43:56;16.80;;;7.57;;
65469;SDS011;52067;50.710;14.492;2023-02-28T05:46:22;16.58;;;7.78;;
65469;SDS011;52067;50.710;14.492;2023-02-28T05:48:48;18.80;;;8.70;;
65469;SDS011;52067;50.710;14.492;2023-02-28T05:51:14;20.98;;;8.52;;
65469;SDS011;52067;50.710;14.492;2023-02-28T05:53:39;19.13;;;8.32;;
65469;SDS011;52067;50.710;14.492;2023-02-28T05:56:05;21.15;;;8.77;;
65469;SDS011;52067;50.710;14.492;2023-02-28T05:58:30;21.02;;;8.88;;
65469;SDS011;52067;50.710;14.492;2023-02-28T06:00:57;22.33;;;8.75;;
65469;SDS011;52067;50.710;14.492;2023-02-28T06:03:43;22.90;;;9.18;;
65469;SDS011;52067;50.710;14.492;2023-02-28T06:06:08;20.10;;;8.95;;
65469;SDS011;52067;50.710;14.492;2023-02-28T06:08:34;21.55;;;8.65;;
65469;SDS011;52067;50.710;14.492;2023-02-28T06:11:02;25.77;;;9.20;;
65469;SDS011;52067;50.710;14.492;2023-02-28T06:13:28;21.15;;;8.57;;
65469;SDS011;52067;50.710;14.492;2023-02-28T06:15:54;19.27;;;8.63;;
65469;SDS011;52067;50.710;14.492;2023-02-28T06:18:19;20.50;;;8.13;;
65469;SDS011;52067;50.710;14.492;2023-02-28T06:20:44;24.38;;;9.05;;
65469;SDS011;52067;50.710;14.492;2023-02-28T06:23:19;64.88;;;23.23;;
65469;SDS011;52067;50.710;14.492;2023-02-28T06:25:45;120.53;;;33.88;;
65469;SDS011;52067;50.710;14.492;2023-02-28T06:28:11;81.53;;;25.17;;
65469;SDS011;52067;50.710;14.492;2023-02-28T06:30:37;66.97;;;21.25;;
65469;SDS011;52067;50.710;14.492;2023-02-28T06:33:02;169.43;;;37.67;;
65469;SDS011;52067;50.710;14.492;2023-02-28T06:35:28;173.02;;;42.63;;
65469;SDS011;52067;50.710;14.492;2023-02-28T06:37:54;145.65;;;34.80;;
65469;SDS011;52067;50.710;14.492;2023-02-28T06:40:19;104.28;;;31.40;;
65469;SDS011;52067;50.710;14.492;2023-02-28T06:42:45;35.50;;;13.55;;
65469;SDS011;52067;50.710;14.492;2023-02-28T06:45:11;25.13;;;9.85;;
65469;SDS011;52067;50.710;14.492;2023-02-28T06:47:37;26.95;;;11.05;;
65469;SDS011;52067;50.710;14.492;2023-02-28T06:50:04;28.25;;;10.75;;
65469;SDS011;52067;50.710;14.492;2023-02-28T06:52:31;26.17;;;10.60;;
65469;SDS011;52067;50.710;14.492;2023-02-28T06:54:56;26.73;;;10.57;;
65469;SDS011;52067;50.710;14.492;2023-02-28T06:57:31;27.95;;;10.77;;
65469;SDS011;52067;50.710;14.492;2023-02-28T06:59:58;32.10;;;12.57;;
65469;SDS011;52067;50.710;14.492;2023-02-28T07:02:25;27.85;;;11.75;;
65469;SDS011;52067;50.710;14.492;2023-02-28T07:04:51;30.02;;;11.20;;
65469;SDS011;52067;50.710;14.492;2023-02-28T07:07:16;26.05;;;11.18;;
65469;SDS011;52067;50.710;14.492;2023-02-28T07:09:41;25.65;;;11.00;;
65469;SDS011;52067;50.710;14.492;2023-02-28T07:12:07;30.13;;;11.00;;
65469;SDS011;52067;50.710;14.492;2023-02-28T07:14:32;22.60;;;10.07;;
65469;SDS011;52067;50.710;14.492;2023-02-28T07:16:57;28.15;;;11.60;;
65469;SDS011;52067;50.710;14.492;2023-02-28T07:19:23;22.75;;;11.20;;
65469;SDS011;52067;50.710;14.492;2023-02-28T07:21:48;25.70;;;10.65;;
65469;SDS011;52067;50.710;14.492;2023-02-28T07:24:14;26.20;;;10.73;;
65469;SDS011;52067;50.710;14.492;2023-02-28T07:26:41;24.05;;;11.00;;
65469;SDS011;52067;50.710;14.492;2023-02-28T07:29:06;22.30;;;9.63;;
65469;SDS011;52067;50.710;14.492;2023-02-28T07:31:31;27.02;;;10.38;;
65469;SDS011;52067;50.710;14.492;2023-02-28T07:33:57;21.98;;;9.70;;
65469;SDS011;52067;50.710;14.492;2023-02-28T07:36:22;21.95;;;9.40;;
65469;SDS011;52067;50.710;14.492;2023-02-28T07:38:48;20.80;;;9.40;;
65469;SDS011;52067;50.710;14.492;2023-02-28T07:41:18;27.95;;;9.52;;
65469;SDS011;52067;50.710;14.492;2023-02-28T07:43:45;28.00;;;9.50;;
65469;SDS011;52067;50.710;14.492;2023-02-28T07:46:12;27.17;;;10.63;;
65469;SDS011;52067;50.710;14.492;2023-02-28T07:48:42;28.15;;;10.77;;
65469;SDS011;52067;50.710;14.492;2023-02-28T07:51:08;21.95;;;10.07;;
65469;SDS011;52067;50.710;14.492;2023-02-28T07:53:33;21.75;;;10.43;;
65469;SDS011;52067;50.710;14.492;2023-02-28T07:56:00;21.27;;;10.07;;
65469;SDS011;52067;50.710;14.492;2023-02-28T07:58:26;17.70;;;7.05;;
65469;SDS011;52067;50.710;14.492;2023-02-28T08:00:53;17.05;;;8.07;;
65469;SDS011;52067;50.710;14.492;2023-02-28T08:03:18;16.25;;;8.30;;
65469;SDS011;52067;50.710;14.492;2023-02-28T08:05:45;17.50;;;8.70;;
65469;SDS011;52067;50.710;14.492;2023-02-28T08:08:12;11.25;;;5.25;;
65469;SDS011;52067;50.710;14.492;2023-02-28T08:10:38;16.27;;;7.20;;
65469;SDS011;52067;50.710;14.492;2023-02-28T08:13:03;16.30;;;7.75;;
65469;SDS011;52067;50.710;14.492;2023-02-28T08:15:29;17.20;;;7.57;;
65469;SDS011;52067;50.710;14.492;2023-02-28T08:17:54;14.10;;;6.80;;
65469;SDS011;52067;50.710;14.492;2023-02-28T08:20:21;14.32;;;7.03;;
65469;SDS011;52067;50.710;14.492;2023-02-28T08:22:47;12.48;;;5.90;;
65469;SDS011;52067;50.710;14.492;2023-02-28T08:25:13;13.23;;;6.40;;
65469;SDS011;52067;50.710;14.492;2023-02-28T08:27:39;13.90;;;5.68;;
65469;SDS011;52067;50.710;14.492;2023-02-28T08:30:05;14.13;;;5.82;;
65469;SDS011;52067;50.710;14.492;2023-02-28T08:32:32;14.77;;;5.95;;
65469;SDS011;52067;50.710;14.492;2023-02-28T08:34:58;10.18;;;5.55;;
65469;SDS011;52067;50.710;14.492;2023-02-28T08:37:23;11.27;;;6.75;;
65469;SDS011;52067;50.710;14.492;2023-02-28T08:39:49;10.98;;;5.55;;
65469;SDS011;52067;50.710;14.492;2023-02-28T08:42:14;11.27;;;5.07;;
65469;SDS011;52067;50.710;14.492;2023-02-28T08:44:40;9.50;;;4.57;;
65469;SDS011;52067;50.710;14.492;2023-02-28T08:47:05;9.65;;;4.55;;
65469;SDS011;52067;50.710;14.492;2023-02-28T08:49:31;12.18;;;5.72;;
65469;SDS011;52067;50.710;14.492;2023-02-28T08:51:56;11.48;;;5.00;;
65469;SDS011;52067;50.710;14.492;2023-02-28T08:54:22;14.02;;;5.70;;
65469;SDS011;52067;50.710;14.492;2023-02-28T08:56:48;9.57;;;4.50;;
65469;SDS011;52067;50.710;14.492;2023-02-28T08:59:13;9.25;;;3.90;;
65469;SDS011;52067;50.710;14.492;2023-02-28T09:01:39;11.50;;;4.75;;
65469;SDS011;52067;50.710;14.492;2023-02-28T09:04:06;7.90;;;4.28;;
65469;SDS011;52067;50.710;14.492;2023-02-28T09:06:33;8.85;;;4.97;;
65469;SDS011;52067;50.710;14.492;2023-02-28T09:08:59;9.65;;;4.78;;
65469;SDS011;52067;50.710;14.492;2023-02-28T09:11:26;8.15;;;4.50;;
65469;SDS011;52067;50.710;14.492;2023-02-28T09:13:52;12.00;;;4.82;;
65469;SDS011;52067;50.710;14.492;2023-02-28T09:16:17;9.98;;;4.68;;
65469;SDS011;52067;50.710;14.492;2023-02-28T09:18:44;8.85;;;4.40;;
65469;SDS011;52067;50.710;14.492;2023-02-28T09:21:13;9.63;;;4.75;;
65469;SDS011;52067;50.710;14.492;2023-02-28T09:23:41;9.02;;;4.47;;
65469;SDS011;52067;50.710;14.492;2023-02-28T09:26:08;11.95;;;5.70;;
65469;SDS011;52067;50.710;14.492;2023-02-28T09:28:41;11.25;;;5.18;;
65469;SDS011;52067;50.710;14.492;2023-02-28T09:31:10;8.90;;;4.47;;
65469;SDS011;52067;50.710;14.492;2023-02-28T09:33:38;10.77;;;5.53;;
65469;SDS011;52067;50.710;14.492;2023-02-28T09:36:03;9.45;;;4.85;;
65469;SDS011;52067;50.710;14.492;2023-02-28T09:38:29;7.72;;;3.72;;
65469;SDS011;52067;50.710;14.492;2023-02-28T09:40:59;10.65;;;5.22;;
65469;SDS011;52067;50.710;14.492;2023-02-28T09:43:39;9.93;;;3.67;;
65469;SDS011;52067;50.710;14.492;2023-02-28T09:46:12;7.25;;;3.88;;
65469;SDS011;52067;50.710;14.492;2023-02-28T09:49:05;12.63;;;5.65;;
65469;SDS011;52067;50.710;14.492;2023-02-28T09:54:19;12.02;;;5.10;;
65469;SDS011;52067;50.710;14.492;2023-02-28T09:56:49;8.95;;;5.05;;
65469;SDS011;52067;50.710;14.492;2023-02-28T10:04:47;6.60;;;3.75;;
65469;SDS011;52067;50.710;14.492;2023-02-28T10:10:29;8.18;;;4.72;;
65469;SDS011;52067;50.710;14.492;2023-02-28T10:13:41;7.40;;;4.50;;
65469;SDS011;52067;50.710;14.492;2023-02-28T10:21:41;7.72;;;4.57;;
65469;SDS011;52067;50.710;14.492;2023-02-28T10:24:22;16.77;;;7.25;;
65469;SDS011;52067;50.710;14.492;2023-02-28T10:26:56;11.52;;;5.22;;
65469;SDS011;52067;50.710;14.492;2023-02-28T10:29:26;10.40;;;5.20;;
65469;SDS011;52067;50.710;14.492;2023-02-28T10:31:53;12.68;;;4.97;;
65469;SDS011;52067;50.710;14.492;2023-02-28T10:34:18;9.07;;;4.65;;
65469;SDS011;52067;50.710;14.492;2023-02-28T10:36:43;7.05;;;4.45;;
65469;SDS011;52067;50.710;14.492;2023-02-28T10:42:02;9.40;;;4.95;;
65469;SDS011;52067;50.710;14.492;2023-02-28T10:44:27;7.60;;;4.68;;
65469;SDS011;52067;50.710;14.492;2023-02-28T10:46:53;8.13;;;5.10;;
65469;SDS011;52067;50.710;14.492;2023-02-28T10:49:27;13.52;;;6.93;;
65469;SDS011;52067;50.710;14.492;2023-02-28T10:54:27;10.55;;;5.22;;
65469;SDS011;52067;50.710;14.492;2023-02-28T10:57:06;8.80;;;5.15;;
65469;SDS011;52067;50.710;14.492;2023-02-28T11:00:05;11.88;;;5.97;;
65469;SDS011;52067;50.710;14.492;2023-02-28T11:02:43;9.07;;;4.97;;
65469;SDS011;52067;50.710;14.492;2023-02-28T11:05:31;9.50;;;5.45;;
65469;SDS011;52067;50.710;14.492;2023-02-28T11:10:36;10.48;;;5.90;;
65469;SDS011;52067;50.710;14.492;2023-02-28T11:13:02;10.48;;;5.65;;
65469;SDS011;52067;50.710;14.492;2023-02-28T11:15:37;9.38;;;5.10;;
65469;SDS011;52067;50.710;14.492;2023-02-28T11:20:37;8.93;;;5.20;;
65469;SDS011;52067;50.710;14.492;2023-02-28T11:23:04;9.23;;;5.32;;
65469;SDS011;52067;50.710;14.492;2023-02-28T11:25:32;9.27;;;5.30;;
65469;SDS011;52067;50.710;14.492;2023-02-28T11:28:03;8.85;;;5.28;;
65469;SDS011;52067;50.710;14.492;2023-02-28T11:30:38;11.02;;;6.13;;
65469;SDS011;52067;50.710;14.492;2023-02-28T11:33:22;9.27;;;5.53;;
65469;SDS011;52067;50.710;14.492;2023-02-28T11:35:57;9.60;;;5.18;;
65469;SDS011;52067;50.710;14.492;2023-02-28T11:38:28;9.35;;;5.50;;
65469;SDS011;52067;50.710;14.492;2023-02-28T11:49:43;8.57;;;5.07;;
65469;SDS011;52067;50.710;14.492;2023-02-28T11:55:07;8.75;;;5.35;;
65469;SDS011;52067;50.710;14.492;2023-02-28T12:00:47;8.18;;;5.40;;
65469;SDS011;52067;50.710;14.492;2023-02-28T12:03:44;8.70;;;5.63;;
65469;SDS011;52067;50.710;14.492;2023-02-28T12:06:28;8.55;;;4.65;;
65469;SDS011;52067;50.710;14.492;2023-02-28T12:09:13;9.68;;;5.45;;
65469;SDS011;52067;50.710;14.492;2023-02-28T12:11:58;8.63;;;5.20;;
65469;SDS011;52067;50.710;14.492;2023-02-28T12:14:42;8.68;;;5.10;;
65469;SDS011;52067;50.710;14.492;2023-02-28T12:17:43;9.73;;;5.45;;
65469;SDS011;52067;50.710;14.492;2023-02-28T12:25:49;7.55;;;4.50;;
65469;SDS011;52067;50.710;14.492;2023-02-28T12:28:42;15.00;;;6.47;;
65469;SDS011;52067;50.710;14.492;2023-02-28T12:31:17;14.45;;;6.13;;
65469;SDS011;52067;50.710;14.492;2023-02-28T12:33:53;18.00;;;6.20;;
65469;SDS011;52067;50.710;14.492;2023-02-28T12:36:24;12.10;;;5.53;;
65469;SDS011;52067;50.710;14.492;2023-02-28T12:39:01;9.88;;;4.97;;
65469;SDS011;52067;50.710;14.492;2023-02-28T12:41:39;10.50;;;5.75;;
65469;SDS011;52067;50.710;14.492;2023-02-28T12:44:12;7.78;;;4.72;;
65469;SDS011;52067;50.710;14.492;2023-02-28T12:46:43;11.18;;;5.63;;
65469;SDS011;52067;50.710;14.492;2023-02-28T12:49:17;10.80;;;4.78;;
65469;SDS011;52067;50.710;14.492;2023-02-28T12:51:49;8.35;;;4.82;;
65469;SDS011;52067;50.710;14.492;2023-02-28T12:57:11;8.38;;;4.90;;
65469;SDS011;52067;50.710;14.492;2023-02-28T13:00:00;8.15;;;5.13;;
65469;SDS011;52067;50.710;14.492;2023-02-28T13:08:01;8.10;;;4.30;;
65469;SDS011;52067;50.710;14.492;2023-02-28T13:10:49;8.23;;;4.72;;
65469;SDS011;52067;50.710;14.492;2023-02-28T13:13:26;8.23;;;4.70;;
65469;SDS011;52067;50.710;14.492;2023-02-28T13:21:10;10.32;;;4.93;;
65469;SDS011;52067;50.710;14.492;2023-02-28T13:26:20;10.93;;;4.85;;
65469;SDS011;52067;50.710;14.492;2023-02-28T13:31:20;10.60;;;5.35;;
65469;SDS011;52067;50.710;14.492;2023-02-28T13:47:15;10.63;;;5.80;;
65469;SDS011;52067;50.710;14.492;2023-02-28T13:49:46;11.30;;;6.10;;
65469;SDS011;52067;50.710;14.492;2023-02-28T13:52:14;8.90;;;5.95;;
65469;SDS011;52067;50.710;14.492;2023-02-28T14:05:35;20.92;;;8.18;;
65469;SDS011;52067;50.710;14.492;2023-02-28T14:08:07;15.05;;;6.75;;
65469;SDS011;52067;50.710;14.492;2023-02-28T14:10:42;12.25;;;7.10;;
65469;SDS011;52067;50.710;14.492;2023-02-28T14:20:38;11.95;;;6.68;;
65469;SDS011;52067;50.710;14.492;2023-02-28T14:25:41;12.20;;;6.88;;
65469;SDS011;52067;50.710;14.492;2023-02-28T14:33:22;13.80;;;7.03;;
65469;SDS011;52067;50.710;14.492;2023-02-28T14:39:15;11.10;;;6.90;;
65469;SDS011;52067;50.710;14.492;2023-02-28T14:43:56;12.15;;;7.40;;
65469;SDS011;52067;50.710;14.492;2023-02-28T14:46:28;11.80;;;6.97;;
65469;SDS011;52067;50.710;14.492;2023-02-28T14:49:00;10.52;;;5.45;;
65469;SDS011;52067;50.710;14.492;2023-02-28T14:51:26;12.07;;;7.18;;
65469;SDS011;52067;50.710;14.492;2023-02-28T14:53:55;16.00;;;7.65;;
65469;SDS011;52067;50.710;14.492;2023-02-28T14:56:24;13.68;;;7.25;;
65469;SDS011;52067;50.710;14.492;2023-02-28T14:58:58;7.53;;;4.97;;
65469;SDS011;52067;50.710;14.492;2023-02-28T15:01:24;14.52;;;7.30;;
65469;SDS011;52067;50.710;14.492;2023-02-28T15:04:16;13.45;;;7.25;;
65469;SDS011;52067;50.710;14.492;2023-02-28T15:06:45;14.70;;;7.72;;
65469;SDS011;52067;50.710;14.492;2023-02-28T15:09:14;13.30;;;7.07;;
65469;SDS011;52067;50.710;14.492;2023-02-28T15:11:42;15.52;;;8.88;;
65469;SDS011;52067;50.710;14.492;2023-02-28T15:14:16;14.38;;;8.05;;
65469;SDS011;52067;50.710;14.492;2023-02-28T15:16:45;71.85;;;27.70;;
65469;SDS011;52067;50.710;14.492;2023-02-28T15:19:30;13.13;;;7.78;;
65469;SDS011;52067;50.710;14.492;2023-02-28T15:22:00;15.52;;;7.65;;
65469;SDS011;52067;50.710;14.492;2023-02-28T15:24:31;15.05;;;7.90;;
65469;SDS011;52067;50.710;14.492;2023-02-28T15:26:59;17.05;;;8.85;;
65469;SDS011;52067;50.710;14.492;2023-02-28T15:29:28;14.57;;;7.85;;
65469;SDS011;52067;50.710;14.492;2023-02-28T15:31:56;14.50;;;6.78;;
65469;SDS011;52067;50.710;14.492;2023-02-28T15:34:35;17.55;;;8.13;;
65469;SDS011;52067;50.710;14.492;2023-02-28T15:37:52;9.90;;;3.42;;
65469;SDS011;52067;50.710;14.492;2023-02-28T15:39:55;12.82;;;6.95;;
65469;SDS011;52067;50.710;14.492;2023-02-28T15:42:26;16.40;;;7.00;;
65469;SDS011;52067;50.710;14.492;2023-02-28T15:44:53;11.82;;;5.90;;
65469;SDS011;52067;50.710;14.492;2023-02-28T15:49:49;14.57;;;7.18;;
65469;SDS011;52067;50.710;14.492;2023-02-28T15:52:18;17.90;;;6.95;;
65469;SDS011;52067;50.710;14.492;2023-02-28T15:54:47;12.02;;;5.78;;
65469;SDS011;52067;50.710;14.492;2023-02-28T15:57:15;10.90;;;5.63;;
65469;SDS011;52067;50.710;14.492;2023-02-28T15:59:50;9.98;;;5.75;;
65469;SDS011;52067;50.710;14.492;2023-02-28T16:02:20;15.23;;;7.35;;
65469;SDS011;52067;50.710;14.492;2023-02-28T16:04:57;8.13;;;4.25;;
65469;SDS011;52067;50.710;14.492;2023-02-28T16:07:27;11.15;;;5.93;;
65469;SDS011;52067;50.710;14.492;2023-02-28T16:09:52;12.88;;;6.38;;
65469;SDS011;52067;50.710;14.492;2023-02-28T16:12:18;13.85;;;6.72;;
65469;SDS011;52067;50.710;14.492;2023-02-28T16:14:51;11.63;;;5.88;;
65469;SDS011;52067;50.710;14.492;2023-02-28T16:17:23;12.15;;;5.63;;
65469;SDS011;52067;50.710;14.492;2023-02-28T16:19:53;15.85;;;6.15;;
65469;SDS011;52067;50.710;14.492;2023-02-28T16:22:19;39.90;;;16.42;;
65469;SDS011;52067;50.710;14.492;2023-02-28T16:24:45;26.00;;;9.30;;
65469;SDS011;52067;50.710;14.492;2023-02-28T16:29:42;50.13;;;18.40;;
65469;SDS011;52067;50.710;14.492;2023-02-28T16:32:07;31.58;;;11.25;;
65469;SDS011;52067;50.710;14.492;2023-02-28T16:34:33;44.75;;;16.48;;
65469;SDS011;52067;50.710;14.492;2023-02-28T16:36:58;41.80;;;15.50;;
65469;SDS011;52067;50.710;14.492;2023-02-28T16:39:24;59.83;;;22.88;;
65469;SDS011;52067;50.710;14.492;2023-02-28T16:41:49;30.10;;;11.32;;
65469;SDS011;52067;50.710;14.492;2023-02-28T16:46:56;21.90;;;10.20;;
65469;SDS011;52067;50.710;14.492;2023-02-28T16:49:24;22.40;;;10.70;;
65469;SDS011;52067;50.710;14.492;2023-02-28T16:51:49;21.55;;;9.35;;
65469;SDS011;52067;50.710;14.492;2023-02-28T16:54:14;24.70;;;9.70;;
65469;SDS011;52067;50.710;14.492;2023-02-28T16:56:42;16.90;;;8.10;;
65469;SDS011;52067;50.710;14.492;2023-02-28T16:59:09;20.88;;;9.05;;
65469;SDS011;52067;50.710;14.492;2023-02-28T17:01:35;20.40;;;9.93;;